Estación Meteorológica Peña el Pijo (Robertgarden) [ 06/14/24 09:52:43 CEST ]

Fecha Hora Presion(HPa) Temp (°C) Humedad % Rocio (°C) Viento ( m/s) Direccion Lluvia 1Hora(mm) Lluvia 24H(mm) LLuvia Total(mm)
2012-Dec-11 01:01:14 1009.100 -0.7 55 -8.7         178.19
2012-Dec-11 02:07:06 1008.900 0.6 53 -7.9         178.19
2012-Dec-11 03:01:16 1008.600 0.3 53 -8.2         178.19
2012-Dec-11 04:01:16 1008.600 0.4 58 -6.9         178.19
2012-Dec-11 05:01:19 1007.800 -0.2 61 -6.8         178.19
2012-Dec-11 06:01:13 1008.100 -0.1 59 -7.1         178.19
2012-Dec-11 07:01:13 1008.100 0.6 57 -7.0         178.19
2012-Dec-11 08:01:13 1008.200 0.1 60 -6.7         178.19
2012-Dec-11 09:01:12 1008.200 -0.4 64 -6.4         178.19
2012-Dec-11 10:01:17 1008.400 3.8 61 -3.1         178.19
2012-Dec-11 11:01:21 1008.600 9.5 38 -4.2         178.19
2012-Dec-11 12:01:13 1008.200 12.1 29 -5.5         178.19
2012-Dec-11 13:01:19 1007.700 13.0 27 -5.8         178.19
2012-Dec-11 14:01:17 1006.900 13.6 25 -6.3         178.19
2012-Dec-11 15:01:19 1006.400 13.5 25 -6.4         178.19
2012-Dec-11 16:01:15 1006.300 13.3 27 -5.5         178.19
2012-Dec-11 17:01:14 1006.400 10.8 29 -6.6         178.19
2012-Dec-11 18:01:13 1007.000 7.4 38 -6.1         178.19
2012-Dec-11 19:01:15 1007.400 3.5 50 -6.0         178.19
2012-Dec-11 20:01:14 1007.900 1.2 58 -6.2         178.19
2012-Dec-11 21:01:15 1007.900 -0.6 64 -6.6         178.19
2012-Dec-11 22:01:15 1007.900 -1.3 70 -6.1         178.19
2012-Dec-11 23:01:17 1008.200 -1.5 72 -5.9         178.19

Temperatura Máxima:13°    Temperatura Mínima:-1°
Presión Máxima:1009.100 Hpa    Presión Mínima:1006.300 Hpa


Volver